Impacts METAR Board
IDs:

KBWI - Baltimore-Washington, MD, US

Updated at: 2200 UTC 25 May 2018
Potential Impact None Slight Moderate High
Time 25/10Z 25/11Z 25/12Z 25/13Z 25/14Z 25/15Z 25/16Z 25/17Z 25/18Z 25/19Z 25/20Z 25/21Z 25/22Z
Temp60 63 68 72 77 81 83 84 85 86 87 87 86
Dewpt57 60 61 61 61 61 61 61 59 59 60 60 61
Altim30.10 30.09 30.08 30.08 30.06 30.05 30.02 30.00 29.97 29.95 29.93 29.91 29.89
VIS10 10 10 10 10 10 10 10 10 10 10 10 10
CIG-- -- -- -- -- -- -- 250 250 250 250 -- --
CoverFEWFEWSCTSCTSCTCLRSCTBKNBKNBKNBKNSCTSCT
FltCatVFRVFRVFRVFRVFRVFRVFRVFRVFRVFRVFRVFRVFR
WX--------------------------
WDir270220210190220250230190210210210210210
WSpd3 3 4 5 9 9 8 4 10 8 7 7 8
WGst-- -- -- -- -- -- -- -- -- 15 15 15 14
Raw hourly METARs
KBWI 250954Z 27003KT 10SM FEW250 16/14 A3010 RMK AO2 SLP189 T01560139
KBWI 251054Z 22003KT 10SM FEW250 17/16 A3009 RMK AO2 SLP187 T01720156
KBWI 251154Z 21004KT 10SM SCT250 20/16 A3008 RMK AO2 SLP185 T02000161 10200 20128 58001
KBWI 251254Z 19005KT 10SM SCT250 22/16 A3008 RMK AO2 SLP183 T02220161
KBWI 251354Z 22009KT 10SM SCT250 25/16 A3006 RMK AO2 SLP178 T02500161
KBWI 251454Z 25009KT 10SM CLR 27/16 A3005 RMK AO2 SLP173 T02720161 58012
KBWI 251554Z 23008KT 10SM SCT250 28/16 A3002 RMK AO2 SLP165 T02830161
KBWI 251654Z 19004KT 10SM BKN250 29/16 A3000 RMK AO2 SLP157 T02890161
KBWI 251754Z 21010KT 10SM FEW055 BKN250 29/15 A2997 RMK AO2 SLP149 T02940150 10294 20200 58024
KBWI 251854Z 21008G15KT 10SM FEW055 BKN250 30/15 A2995 RMK AO2 SLP140 T03000150
KBWI 251954Z 21007G15KT 10SM SCT055 BKN250 31/16 A2993 RMK AO2 SLP132 T03060156
KBWI 252054Z 21007G15KT 10SM FEW055 SCT250 31/16 A2991 RMK AO2 SLP125 T03060156 56023
KBWI 252154Z 21008G14KT 10SM FEW055 SCT250 30/16 A2989 RMK AO2 SLP121 T03000161



Page loaded:  22:00 UTC  |   03:00 PM Pacific  |   04:00 PM Mountain  |   05:00 PM Central  |   06:00 PM Eastern

 

ADVISORIES

FORECASTS

FORECASTS

OBSERVATIONS

USER TOOLS

ABOUT US